Time;durP1;ratioP1;P1;durP2;ratioP2;P2;SDS_P1;SDS_P2;PMS_P1;PMS_P2;Temp;Humidity;BMP_temperature;BMP_pressure;BME280_temperature;BME280_humidity;BME280_pressure;Samples;Min_cycle;Max_cycle;Signal;HPM_P1;HPM_P2
2022/06/24 00:00:31;;;;;;;84.40;79.97;;;;;;;32.27;35.86;100668.41;5060387;28;20039;-81
2022/06/24 00:02:56;;;;;;;87.22;82.82;;;;;;;32.20;36.68;100662.78;5036943;28;20365;-74
2022/06/24 00:05:21;;;;;;;81.43;77.68;;;;;;;32.14;36.84;100647.59;5049350;28;20136;-79
2022/06/24 00:07:49;;;;;;;81.00;76.88;;;;;;;32.07;36.44;100640.75;5045028;28;20032;-78
2022/06/24 00:10:18;;;;;;;81.82;77.85;;;;;;;31.98;36.89;100626.38;5051078;28;20062;-75
2022/06/24 00:12:47;;;;;;;82.50;78.28;;;;;;;31.94;36.99;100619.94;5041009;28;20040;-77
2022/06/24 00:15:13;;;;;;;82.18;78.13;;;;;;;31.93;37.01;100618.31;5048941;28;20354;-78
2022/06/24 00:17:39;;;;;;;80.57;76.80;;;;;;;31.90;37.35;100625.50;5047155;28;20033;-77
2022/06/24 00:20:07;;;;;;;80.53;76.53;;;;;;;31.88;37.29;100636.25;5031814;28;20038;-77
2022/06/24 00:22:42;;;;;;;77.75;74.13;;;;;;;31.85;36.81;100634.25;5046219;28;20094;-78
2022/06/24 00:25:16;;;;;;;81.07;77.13;;;;;;;31.81;36.92;100622.25;5044523;28;20382;-77
2022/06/24 00:27:56;;;;;;;80.45;76.38;;;;;;;31.78;37.06;100595.13;5048249;28;20025;-77
2022/06/24 00:30:22;;;;;;;76.43;72.82;;;;;;;31.73;37.34;100598.28;5036585;28;20024;-76
2022/06/24 00:32:47;;;;;;;78.72;75.07;;;;;;;31.69;37.10;100606.63;5049595;28;20090;-76
2022/06/24 00:35:16;;;;;;;76.28;72.78;;;;;;;31.65;37.02;100610.56;5031916;28;20095;-77
2022/06/24 00:37:43;;;;;;;75.97;72.38;;;;;;;31.60;37.29;100619.31;5035369;28;20025;-77
2022/06/24 00:40:08;;;;;;;76.90;73.00;;;;;;;31.55;37.09;100651.22;5047157;28;20036;-77
2022/06/24 00:42:37;;;;;;;79.32;75.53;;;;;;;31.52;37.29;100659.56;5051546;28;20032;-77
2022/06/24 00:45:17;;;;;;;78.05;74.35;;;;;;;31.47;37.76;100660.72;5034668;28;20031;-79
2022/06/24 00:47:45;;;;;;;80.18;76.57;;;;;;;31.40;37.66;100655.06;5041245;28;20546;-78
2022/06/24 00:50:32;;;;;;;74.57;71.07;;;;;;;31.36;37.34;100668.19;5039771;28;20056;-79
2022/06/24 00:52:59;;;;;;;74.53;71.03;;;;;;;31.29;37.55;100680.09;5042454;28;20465;-78
2022/06/24 00:55:36;;;;;;;75.50;72.13;;;;;;;31.24;37.62;100686.03;5047369;28;20079;-78
2022/06/24 00:58:03;;;;;;;78.55;74.78;;;;;;;31.18;37.77;100668.84;5033532;28;20075;-77
2022/06/24 01:00:30;;;;;;;82.47;78.68;;;;;;;31.11;37.92;100659.59;5040422;28;20037;-78
2022/06/24 01:03:04;;;;;;;75.55;71.60;;;;;;;31.08;38.30;100646.44;5049648;28;20112;-77
2022/06/24 01:05:32;;;;;;;71.47;67.95;;;;;;;31.01;38.32;100644.38;5031809;28;20065;-78
2022/06/24 01:07:59;;;;;;;71.38;67.97;;;;;;;30.95;38.35;100651.50;5033308;28;20083;-78
2022/06/24 01:10:25;;;;;;;71.45;68.15;;;;;;;30.91;38.29;100659.03;5043007;28;20035;-75
2022/06/24 01:12:51;;;;;;;74.68;71.05;;;;;;;30.86;38.46;100667.75;5051428;28;20029;-79
2022/06/24 01:15:16;;;;;;;70.28;66.95;;;;;;;30.81;38.32;100666.84;5039482;28;20030;-79
2022/06/24 01:17:42;;;;;;;72.90;69.60;;;;;;;30.76;38.63;100658.03;5038750;28;20410;-79
2022/06/24 01:20:10;;;;;;;69.47;66.28;;;;;;;30.72;38.73;100648.84;5039311;28;20448;-79
2022/06/24 01:22:36;;;;;;;69.70;66.50;;;;;;;30.66;38.63;100634.44;5041637;28;20536;-79
2022/06/24 01:25:02;;;;;;;72.85;69.57;;;;;;;30.60;38.66;100636.78;5049951;28;20158;-72
2022/06/24 01:27:27;;;;;;;69.22;65.93;;;;;;;30.57;38.62;100647.91;5049411;28;20598;-79
2022/06/24 01:29:53;;;;;;;72.25;68.78;;;;;;;30.52;38.66;100660.19;5050160;28;20033;-80
2022/06/24 01:32:19;;;;;;;70.75;67.20;;;;;;;30.48;38.67;100667.69;5041181;28;20110;-81
2022/06/24 01:34:45;;;;;;;72.20;68.70;;;;;;;30.43;38.56;100675.59;5042355;28;20033;-80
2022/06/24 01:37:10;;;;;;;70.53;67.22;;;;;;;30.38;38.52;100685.91;5042268;28;20046;-79
2022/06/24 01:39:36;;;;;;;68.40;65.10;;;;;;;30.32;38.44;100676.28;5047166;28;20148;-80
2022/06/24 01:42:01;;;;;;;65.22;62.25;;;;;;;30.28;38.53;100663.47;5045992;28;20700;-80
2022/06/24 01:44:27;;;;;;;68.45;64.82;;;;;;;30.24;38.74;100646.72;5035541;28;20033;-79
2022/06/24 01:46:52;;;;;;;65.53;62.30;;;;;;;30.19;38.16;100614.41;5046551;28;20131;-80
2022/06/24 01:49:17;;;;;;;68.07;64.60;;;;;;;30.14;38.63;100611.94;5042246;28;20334;-78
2022/06/24 01:51:47;;;;;;;70.60;67.30;;;;;;;30.11;38.47;100625.81;5032489;28;20382;-78
2022/06/24 01:54:12;;;;;;;69.90;66.70;;;;;;;30.05;38.98;100603.06;5042227;28;20033;-78
2022/06/24 01:56:38;;;;;;;70.47;67.10;;;;;;;30.01;38.81;100590.28;5049566;28;20406;-78
2022/06/24 01:59:03;;;;;;;69.95;66.72;;;;;;;29.97;38.45;100570.75;5057146;28;20401;-73
2022/06/24 02:01:29;;;;;;;67.50;64.30;;;;;;;29.92;38.71;100552.41;5041435;28;20133;-79
2022/06/24 02:03:54;;;;;;;67.00;63.80;;;;;;;29.87;38.85;100558.31;5041458;28;20045;-79
2022/06/24 02:06:20;;;;;;;73.03;69.63;;;;;;;29.83;38.78;100571.38;5038638;28;20037;-79
2022/06/24 02:08:46;;;;;;;67.32;63.97;;;;;;;29.79;38.82;100562.19;5041842;28;20037;-79
2022/06/24 02:13:58;;;;;;;67.30;64.10;;;;;;;29.69;39.07;100544.16;5041365;28;20071;-80
2022/06/24 02:16:24;;;;;;;69.80;66.53;;;;;;;29.64;39.25;100527.75;5042647;28;20033;-81
2022/06/24 02:18:50;;;;;;;66.18;62.97;;;;;;;29.61;39.25;100536.03;5049437;28;20095;-81
2022/06/24 02:21:16;;;;;;;70.05;66.65;;;;;;;29.56;39.29;100534.41;5052266;28;20525;-81
2022/06/24 02:23:42;;;;;;;69.03;65.72;;;;;;;29.52;39.45;100537.13;5052533;28;20074;-81
2022/06/24 02:26:08;;;;;;;70.20;66.88;;;;;;;29.48;39.91;100541.03;5053437;28;20028;-73
2022/06/24 02:28:34;;;;;;;69.15;65.85;;;;;;;29.44;39.97;100543.00;5053006;28;20064;-81
2022/06/24 02:31:00;;;;;;;66.15;62.70;;;;;;;29.40;39.97;100539.34;5047427;28;20033;-82
2022/06/24 02:33:27;;;;;;;66.15;62.97;;;;;;;29.35;39.76;100529.34;5039428;28;20041;-81
2022/06/24 02:35:52;;;;;;;69.43;65.93;;;;;;;29.31;40.18;100520.97;5045186;28;20043;-81
2022/06/24 02:38:18;;;;;;;65.85;62.75;;;;;;;29.27;40.04;100517.31;5040918;28;20120;-80
2022/06/24 02:40:47;;;;;;;66.45;63.28;;;;;;;29.23;40.28;100513.69;5038303;28;20041;-82
2022/06/24 02:43:16;;;;;;;69.30;66.13;;;;;;;29.19;40.51;100512.81;5048704;28;20115;-77
2022/06/24 02:45:49;;;;;;;67.22;64.05;;;;;;;29.16;40.61;100504.44;5045406;28;20029;-82
2022/06/24 02:48:16;;;;;;;69.13;65.82;;;;;;;29.11;40.43;100506.34;5044092;28;20242;-82
2022/06/24 02:50:43;;;;;;;68.38;64.85;;;;;;;29.07;40.21;100507.47;5056192;28;20055;-81
2022/06/24 02:53:10;;;;;;;68.50;65.40;;;;;;;29.04;40.73;100506.22;5034298;28;20051;-74
2022/06/24 02:55:36;;;;;;;65.03;61.92;;;;;;;29.00;40.42;100507.34;5042995;28;20389;-82
2022/06/24 02:58:02;;;;;;;65.72;62.42;;;;;;;28.96;40.67;100501.72;5042106;28;20037;-79
2022/06/24 03:00:28;;;;;;;66.25;63.05;;;;;;;28.92;40.65;100495.31;5058319;28;20032;-82
2022/06/24 03:02:53;;;;;;;66.07;62.67;;;;;;;28.89;40.69;100498.84;5035421;28;20041;-83
2022/06/24 03:05:19;;;;;;;68.43;65.20;;;;;;;28.85;40.87;100484.91;5051716;28;20372;-83
2022/06/24 03:07:44;;;;;;;65.72;62.30;;;;;;;28.82;41.17;100477.28;5049492;28;20040;-82
2022/06/24 03:10:09;;;;;;;66.28;62.97;;;;;;;28.78;41.24;100478.38;5051281;28;20037;-75
2022/06/24 03:12:35;;;;;;;66.63;63.17;;;;;;;28.75;41.52;100484.69;5052753;28;20041;-79
2022/06/24 03:15:00;;;;;;;62.90;59.97;;;;;;;28.73;41.25;100473.16;5040826;28;20448;-82
2022/06/24 03:17:26;;;;;;;68.07;64.80;;;;;;;28.68;41.50;100490.97;5041469;28;20120;-82
2022/06/24 03:19:51;;;;;;;64.70;61.58;;;;;;;28.64;41.01;100485.34;5046198;28;20141;-81
2022/06/24 03:22:16;;;;;;;65.88;62.47;;;;;;;28.61;41.03;100488.84;5050439;28;20490;-81
2022/06/24 03:24:42;;;;;;;67.22;64.03;;;;;;;28.57;41.13;100499.09;5063562;28;20036;-80
2022/06/24 03:27:07;;;;;;;63.17;60.08;;;;;;;28.54;41.19;100497.06;5037771;28;20443;-81
2022/06/24 03:29:33;;;;;;;63.53;60.50;;;;;;;28.50;41.23;100507.34;5050648;28;20044;-79
2022/06/24 03:31:58;;;;;;;62.00;59.00;;;;;;;28.48;41.17;100507.69;5037269;28;20033;-80
2022/06/24 03:34:24;;;;;;;59.85;56.97;;;;;;;28.43;41.16;100507.97;5045831;28;20025;-80
2022/06/24 03:36:49;;;;;;;62.67;59.58;;;;;;;28.41;41.03;100517.84;5042893;28;20045;-80
2022/06/24 03:39:15;;;;;;;65.45;62.20;;;;;;;28.37;41.35;100530.88;5050474;28;20071;-72
2022/06/24 03:41:40;;;;;;;60.83;57.70;;;;;;;28.33;41.56;100547.47;5038005;28;20045;-74
2022/06/24 03:44:06;;;;;;;62.90;59.80;;;;;;;28.31;41.23;100554.56;5052203;28;20473;-75
2022/06/24 03:46:31;;;;;;;62.70;59.60;;;;;;;28.26;41.65;100562.03;5050628;28;20461;-75
2022/06/24 03:48:56;;;;;;;63.50;60.30;;;;;;;28.24;41.19;100561.59;5041104;28;20124;-76
2022/06/24 03:51:22;;;;;;;65.22;62.00;;;;;;;28.21;41.64;100558.75;5046846;28;20037;-74
2022/06/24 03:53:47;;;;;;;60.05;57.13;;;;;;;28.17;41.46;100547.59;5044550;28;20152;-74
2022/06/24 03:56:12;;;;;;;65.60;62.40;;;;;;;28.15;41.73;100546.31;5033004;28;20065;-74
2022/06/24 03:58:38;;;;;;;61.47;58.38;;;;;;;28.13;41.55;100548.69;5055965;28;20522;-75
2022/06/24 04:01:03;;;;;;;63.38;60.13;;;;;;;28.09;41.95;100548.59;5042592;28;20131;-75
2022/06/24 04:03:29;;;;;;;63.15;60.00;;;;;;;28.04;41.84;100558.00;5051276;28;20090;-75
2022/06/24 04:05:55;;;;;;;64.90;61.50;;;;;;;28.03;41.73;100547.28;5032913;28;20072;-74
2022/06/24 04:08:20;;;;;;;60.53;57.55;;;;;;;28.00;41.88;100542.47;5046754;28;20044;-74
2022/06/24 04:10:45;;;;;;;62.60;58.85;;;;;;;27.96;41.76;100536.84;5041461;28;20033;-75
2022/06/24 04:13:11;;;;;;;62.95;59.13;;;;;;;27.92;42.08;100530.44;5049074;28;20045;-75
2022/06/24 04:15:44;;;;;;;67.32;63.05;;;;;;;27.90;42.37;100516.09;5047389;28;20136;-75
2022/06/24 04:18:09;;;;;;;62.20;58.85;;;;;;;27.88;42.16;100512.09;5037003;28;20557;-75
2022/06/24 04:20:34;;;;;;;62.42;59.28;;;;;;;27.86;42.68;100511.66;5048191;28;20134;-73
2022/06/24 04:23:00;;;;;;;64.25;61.05;;;;;;;27.83;42.47;100511.22;5049984;28;20490;-75
2022/06/24 04:25:25;;;;;;;61.95;58.33;;;;;;;27.80;42.58;100514.69;5032482;28;20042;-75
2022/06/24 04:27:50;;;;;;;63.22;59.90;;;;;;;27.78;42.25;100519.78;5045193;28;20371;-75
2022/06/24 04:30:16;;;;;;;61.35;58.05;;;;;;;27.76;42.45;100522.13;5051658;28;20480;-74
2022/06/24 04:32:41;;;;;;;65.10;61.50;;;;;;;27.73;42.62;100522.88;5049665;28;20048;-75
2022/06/24 04:35:07;;;;;;;61.97;58.78;;;;;;;27.69;42.85;100521.19;5056131;28;20061;-76
2022/06/24 04:37:37;;;;;;;62.10;58.53;;;;;;;27.67;42.97;100521.56;5042176;28;20389;-76
2022/06/24 04:40:04;;;;;;;63.78;60.28;;;;;;;27.63;43.24;100521.47;5048083;28;20037;-77
2022/06/24 04:42:29;;;;;;;64.28;60.63;;;;;;;27.61;43.01;100525.78;5039420;28;20048;-77
2022/06/24 04:44:55;;;;;;;65.22;61.45;;;;;;;27.59;43.02;100520.59;5051402;28;20037;-77
2022/06/24 04:47:20;;;;;;;58.70;55.70;;;;;;;27.57;43.08;100519.38;5049714;28;20086;-73
2022/06/24 04:49:46;;;;;;;58.65;55.40;;;;;;;27.54;43.22;100520.91;5034146;28;20116;-76
2022/06/24 04:52:11;;;;;;;60.15;57.10;;;;;;;27.52;43.00;100525.19;5036831;28;20409;-77
2022/06/24 04:54:36;;;;;;;65.43;61.63;;;;;;;27.49;43.23;100518.38;5049163;28;21577;-77
2022/06/24 04:57:02;;;;;;;64.80;61.45;;;;;;;27.46;43.37;100516.34;5045670;28;20112;-76
2022/06/24 04:59:27;;;;;;;61.45;58.28;;;;;;;27.45;43.53;100519.50;5042302;28;20390;-76
2022/06/24 05:01:54;;;;;;;60.13;56.92;;;;;;;27.40;43.49;100515.03;5049041;28;20033;-76
2022/06/24 05:04:19;;;;;;;63.78;60.47;;;;;;;27.37;43.61;100529.63;5046514;28;20434;-73
2022/06/24 05:06:45;;;;;;;61.28;58.00;;;;;;;27.33;43.40;100523.97;5048236;28;20037;-76
2022/06/24 05:09:10;;;;;;;59.95;56.58;;;;;;;27.31;43.07;100531.84;5037527;28;20416;-75
2022/06/24 05:11:35;;;;;;;61.30;58.10;;;;;;;27.29;43.46;100530.59;5041301;28;20072;-76
2022/06/24 05:14:01;;;;;;;59.60;56.45;;;;;;;27.26;43.11;100534.91;5049969;28;20036;-76
2022/06/24 05:16:26;;;;;;;60.10;56.90;;;;;;;27.24;42.85;100537.25;5048945;28;20029;-76
2022/06/24 05:18:52;;;;;;;58.63;55.67;;;;;;;27.22;43.41;100531.25;5050252;28;20033;-77
2022/06/24 05:21:17;;;;;;;56.88;53.80;;;;;;;27.18;42.94;100517.31;5035637;28;20090;-77
2022/06/24 05:23:42;;;;;;;60.22;57.03;;;;;;;27.17;43.37;100512.91;5035276;28;20049;-76
2022/06/24 05:26:08;;;;;;;59.95;56.85;;;;;;;27.15;43.57;100520.78;5057369;28;20036;-77
2022/06/24 05:28:35;;;;;;;60.63;57.53;;;;;;;27.12;42.99;100515.94;5054129;28;20465;-76
2022/06/24 05:31:00;;;;;;;57.80;54.58;;;;;;;27.10;43.14;100523.03;5040053;28;20037;-77
2022/06/24 05:33:26;;;;;;;60.20;57.13;;;;;;;27.08;43.44;100519.81;5036660;28;20117;-77
2022/06/24 05:35:53;;;;;;;59.50;56.13;;;;;;;27.06;43.12;100530.44;5044520;28;20036;-77
2022/06/24 05:38:21;;;;;;;61.60;58.25;;;;;;;27.03;43.62;100529.19;5041625;28;20030;-76
2022/06/24 05:40:48;;;;;;;58.17;54.50;;;;;;;27.01;43.53;100522.41;5038271;28;20037;-77
2022/06/24 05:43:14;;;;;;;62.53;58.92;;;;;;;26.99;43.41;100528.31;5051242;28;20144;-75
2022/06/24 05:45:39;;;;;;;60.15;56.50;;;;;;;26.97;43.43;100527.88;5041816;28;20522;-73
2022/06/24 05:48:05;;;;;;;60.13;56.72;;;;;;;26.95;43.31;100532.97;5070420;28;20071;-75
2022/06/24 05:50:30;;;;;;;60.38;56.90;;;;;;;26.92;43.80;100526.16;5054079;28;20531;-76
2022/06/24 05:55:39;;;;;;;61.83;58.42;;;;;;;26.87;43.70;100526.44;5052561;28;20501;-75
2022/06/24 05:58:04;;;;;;;60.85;57.22;;;;;;;26.86;43.61;100532.34;5048879;28;20049;-75
2022/06/24 06:00:31;;;;;;;62.00;58.20;;;;;;;26.84;43.89;100534.66;5035054;28;20393;-75
2022/06/24 06:02:56;;;;;;;64.90;61.10;;;;;;;26.82;43.58;100537.00;5042080;28;20243;-76
2022/06/24 06:05:21;;;;;;;59.95;56.65;;;;;;;26.79;43.88;100540.47;5039491;28;20119;-76
2022/06/24 06:07:47;;;;;;;59.22;55.80;;;;;;;26.76;43.97;100540.03;5048655;28;20036;-75
2022/06/24 06:10:12;;;;;;;60.38;56.67;;;;;;;26.75;43.61;100545.94;5043869;28;20046;-78
2022/06/24 06:12:38;;;;;;;65.32;60.95;;;;;;;26.72;43.78;100552.19;5052580;28;20036;-78
2022/06/24 06:15:03;;;;;;;60.00;56.33;;;;;;;26.70;43.77;100547.00;5041088;28;20038;-74
2022/06/24 06:17:29;;;;;;;60.72;57.22;;;;;;;26.68;44.53;100541.00;5043045;28;20139;-74
2022/06/24 06:19:54;;;;;;;60.15;56.65;;;;;;;26.67;44.21;100536.63;5053886;28;20061;-75
2022/06/24 06:22:19;;;;;;;63.38;59.13;;;;;;;26.64;44.25;100539.31;5039001;28;20069;-77
2022/06/24 06:24:45;;;;;;;62.78;58.80;;;;;;;26.63;44.44;100534.94;5048086;28;20259;-76
2022/06/24 06:27:10;;;;;;;64.40;60.50;;;;;;;26.61;44.43;100537.25;5043577;28;20068;-76
2022/06/24 06:29:36;;;;;;;66.70;62.55;;;;;;;26.59;44.44;100534.84;5052302;28;20060;-74
2022/06/24 06:32:01;;;;;;;65.00;60.78;;;;;;;26.58;44.54;100535.19;5053923;28;20091;-75
2022/06/24 06:34:26;;;;;;;60.75;56.95;;;;;;;26.55;44.15;100537.50;5047651;28;20041;-74
2022/06/24 06:36:52;;;;;;;63.67;59.63;;;;;;;26.54;44.53;100538.69;5042406;28;20028;-76
2022/06/24 06:39:17;;;;;;;61.08;57.33;;;;;;;26.52;44.48;100535.47;5051979;28;20500;-76
2022/06/24 06:41:46;;;;;;;63.05;58.90;;;;;;;26.50;44.26;100529.44;5037418;28;20037;-81
2022/06/24 06:44:13;;;;;;;61.95;57.88;;;;;;;26.48;44.36;100528.97;5045576;28;20029;-80
2022/06/24 06:46:39;;;;;;;63.15;59.47;;;;;;;26.45;44.59;100529.69;5046863;28;20048;-82
2022/06/24 06:49:04;;;;;;;61.72;57.85;;;;;;;26.45;44.30;100537.22;5042559;28;20033;-81
2022/06/24 06:51:29;;;;;;;63.67;59.75;;;;;;;26.43;44.64;100539.53;5038630;28;20028;-81
2022/06/24 06:53:55;;;;;;;64.60;60.33;;;;;;;26.43;44.82;100542.28;5044284;28;20032;-79
2022/06/24 06:56:20;;;;;;;62.13;58.33;;;;;;;26.40;45.23;100540.25;5055353;28;20768;-79
2022/06/24 06:58:45;;;;;;;62.45;58.60;;;;;;;26.37;44.74;100536.22;5048980;28;20052;-76
2022/06/24 07:01:11;;;;;;;61.25;57.35;;;;;;;26.36;44.64;100542.94;5051939;28;20501;-80
2022/06/24 07:03:36;;;;;;;62.25;58.53;;;;;;;26.34;44.60;100548.00;5045078;28;20037;-80
2022/06/24 07:06:02;;;;;;;59.13;55.70;;;;;;;26.32;45.10;100542.00;5049239;28;20048;-80
2022/06/24 07:08:27;;;;;;;66.15;62.08;;;;;;;26.31;44.85;100552.28;5037708;28;20034;-81
2022/06/24 07:10:52;;;;;;;61.85;57.97;;;;;;;26.30;45.36;100555.41;5047638;28;20112;-81
2022/06/24 07:13:19;;;;;;;56.28;52.97;;;;;;;26.28;45.34;100558.53;5048685;28;20045;-83
2022/06/24 07:15:44;;;;;;;60.97;57.28;;;;;;;26.26;45.30;100563.63;5054244;28;20044;-78
2022/06/24 07:18:10;;;;;;;55.78;52.10;;;;;;;26.24;45.02;100562.38;5057184;28;20037;-81
2022/06/24 07:20:36;;;;;;;56.08;52.67;;;;;;;26.23;45.16;100560.75;5047017;28;20104;-80
2022/06/24 07:23:02;;;;;;;57.60;54.22;;;;;;;26.21;45.26;100555.56;5039434;28;20056;-83
2022/06/24 07:25:27;;;;;;;56.85;53.42;;;;;;;26.20;45.38;100562.25;5044409;28;20033;-85
2022/06/24 07:27:54;;;;;;;60.05;56.30;;;;;;;26.19;45.40;100560.66;5042638;28;22429;-85
2022/06/24 07:30:19;;;;;;;55.22;51.92;;;;;;;26.17;45.29;100556.63;5042217;28;20556;-80
2022/06/24 07:32:46;;;;;;;56.33;53.10;;;;;;;26.15;45.80;100551.44;5046879;28;20116;-80
2022/06/24 07:35:11;;;;;;;55.92;52.67;;;;;;;26.14;45.35;100560.09;5043910;28;20056;-81
2022/06/24 07:37:37;;;;;;;60.17;56.40;;;;;;;26.11;45.88;100562.41;5047477;28;20037;-81
2022/06/24 07:40:02;;;;;;;57.63;53.92;;;;;;;26.10;45.94;100560.00;5048587;28;20600;-82
2022/06/24 07:42:28;;;;;;;56.33;53.10;;;;;;;26.08;46.06;100565.06;5050006;28;20051;-83
2022/06/24 07:44:53;;;;;;;57.63;54.47;;;;;;;26.07;45.94;100572.56;5047584;28;20044;-83
2022/06/24 07:47:19;;;;;;;57.25;53.95;;;;;;;26.05;45.90;100568.53;5050216;28;20491;-81
2022/06/24 07:49:44;;;;;;;55.33;52.13;;;;;;;26.04;45.42;100569.72;5048009;28;20039;-82
2022/06/24 07:52:10;;;;;;;55.55;52.45;;;;;;;26.01;45.59;100568.47;5051403;28;20386;-83
2022/06/24 07:54:37;;;;;;;54.42;51.35;;;;;;;26.01;45.66;100567.66;5050319;28;20103;-82
2022/06/24 07:57:03;;;;;;;55.47;52.40;;;;;;;26.00;45.90;100568.78;5054806;28;20033;-81
2022/06/24 07:59:34;;;;;;;56.63;53.65;;;;;;;25.99;46.13;100567.19;5034745;28;20350;-82
2022/06/24 08:02:01;;;;;;;54.08;50.92;;;;;;;25.97;46.36;100567.53;5043773;28;20056;-82
2022/06/24 08:04:30;;;;;;;55.85;52.53;;;;;;;25.96;45.94;100573.44;5038892;28;20141;-82
2022/06/24 08:06:57;;;;;;;54.70;51.63;;;;;;;25.95;46.33;100567.09;5031810;28;20041;-83
2022/06/24 08:09:25;;;;;;;56.17;53.05;;;;;;;25.93;46.56;100563.88;5032034;28;20056;-81
2022/06/24 08:11:51;;;;;;;53.10;50.15;;;;;;;25.92;46.13;100565.03;5034204;28;20041;-77
2022/06/24 08:14:17;;;;;;;58.00;54.47;;;;;;;25.91;46.39;100557.88;5041611;28;20032;-83
2022/06/24 08:16:44;;;;;;;58.00;54.70;;;;;;;25.92;46.34;100550.38;5057691;28;20040;-82
2022/06/24 08:19:09;;;;;;;54.75;51.53;;;;;;;25.91;46.15;100552.34;5032785;28;20037;-83
2022/06/24 08:21:35;;;;;;;56.67;53.38;;;;;;;25.91;46.04;100560.66;5033314;28;20434;-82
2022/06/24 08:24:01;;;;;;;58.60;55.10;;;;;;;25.90;46.01;100553.50;5032539;28;20080;-82
2022/06/24 08:26:26;;;;;;;56.95;53.30;;;;;;;25.90;45.99;100554.31;5064141;28;20028;-83
2022/06/24 08:28:52;;;;;;;57.17;53.72;;;;;;;25.90;46.36;100559.03;5033441;28;20068;-82
2022/06/24 08:31:17;;;;;;;58.13;54.78;;;;;;;25.88;46.43;100567.69;5047706;28;20037;-76
2022/06/24 08:33:43;;;;;;;60.67;56.88;;;;;;;25.88;46.95;100562.16;5051574;28;20048;-78
2022/06/24 08:36:08;;;;;;;55.17;51.88;;;;;;;25.87;46.68;100554.19;5050121;28;20116;-83
2022/06/24 08:38:34;;;;;;;58.78;55.22;;;;;;;25.86;47.15;100556.16;5049997;28;20407;-81
2022/06/24 08:41:02;;;;;;;57.70;54.10;;;;;;;25.85;47.20;100551.78;5049810;28;20037;-86
2022/06/24 08:43:33;;;;;;;57.65;53.92;;;;;;;25.87;47.41;100551.44;5041418;28;20033;-82
2022/06/24 08:46:00;;;;;;;59.25;55.75;;;;;;;25.86;47.22;100547.88;5049287;28;20082;-83
2022/06/24 08:48:26;;;;;;;58.92;55.15;;;;;;;25.86;47.06;100558.94;5037621;28;20037;-86
2022/06/24 08:50:52;;;;;;;55.60;52.28;;;;;;;25.87;46.80;100557.78;5048804;28;20048;-85
2022/06/24 08:53:21;;;;;;;59.97;56.05;;;;;;;25.89;47.35;100561.00;5040668;28;20033;-81
2022/06/24 08:55:50;;;;;;;58.28;54.95;;;;;;;25.89;47.03;100549.94;5044145;28;20033;-83
2022/06/24 08:58:17;;;;;;;60.35;56.83;;;;;;;25.90;46.60;100545.19;5040627;28;20035;-78
2022/06/24 09:00:43;;;;;;;63.92;59.88;;;;;;;25.91;47.01;100544.06;5050277;28;20405;-82
2022/06/24 09:03:08;;;;;;;62.28;58.38;;;;;;;25.92;47.89;100553.16;5037085;28;20033;-70
2022/06/24 09:05:34;;;;;;;59.00;55.20;;;;;;;25.92;49.12;100550.38;5034339;28;20111;-82
2022/06/24 09:08:14;;;;;;;61.47;57.58;;;;;;;25.92;49.95;100540.13;5048783;28;20510;-86
2022/06/24 09:10:42;;;;;;;63.55;59.20;;;;;;;25.93;49.11;100538.16;5047856;28;22206;-87
2022/06/24 09:13:17;;;;;;;61.15;57.00;;;;;;;25.96;49.65;100540.22;5043913;28;20428;-83
2022/06/24 09:15:50;;;;;;;60.83;57.00;;;;;;;25.98;49.39;100529.59;5040729;28;20040;-84
2022/06/24 09:18:20;;;;;;;64.90;60.63;;;;;;;26.00;49.01;100530.06;5043615;28;20029;-84
2022/06/24 09:20:48;;;;;;;61.13;57.03;;;;;;;26.02;48.78;100530.50;5039582;28;20126;-84
2022/06/24 09:23:14;;;;;;;58.17;54.58;;;;;;;26.04;48.54;100530.97;5044742;28;20041;-84
2022/06/24 09:25:48;;;;;;;59.75;56.05;;;;;;;26.05;48.82;100524.25;5045601;28;20041;-84
2022/06/24 09:28:25;;;;;;;59.97;56.65;;;;;;;26.10;48.20;100527.56;5045259;28;20462;-86
2022/06/24 09:30:58;;;;;;;59.30;55.78;;;;;;;26.11;48.14;100520.91;5043334;28;20041;-85
2022/06/24 09:33:23;;;;;;;58.08;54.22;;;;;;;26.13;47.87;100528.81;5045519;28;20044;-86
2022/06/24 09:35:59;;;;;;;56.13;52.92;;;;;;;26.17;47.28;100529.75;5043006;28;20400;-84
2022/06/24 09:38:25;;;;;;;56.55;53.05;;;;;;;26.20;47.76;100523.50;5043185;28;20372;-84
2022/06/24 09:40:59;;;;;;;54.88;51.88;;;;;;;26.22;47.45;100526.72;5045805;28;20148;-83
2022/06/24 09:43:30;;;;;;;53.50;50.70;;;;;;;26.23;46.83;100528.34;5045993;28;20037;-76
2022/06/24 09:45:55;;;;;;;54.60;51.65;;;;;;;26.26;46.31;100524.06;5045859;28;20496;-82
2022/06/24 09:48:34;;;;;;;53.55;50.85;;;;;;;26.30;46.48;100533.25;5044166;28;20048;-83
2022/06/24 09:51:02;;;;;;;56.90;53.85;;;;;;;26.30;46.25;100528.50;5044319;28;20130;-83
2022/06/24 09:53:32;;;;;;;55.42;52.55;;;;;;;26.33;45.93;100530.59;5046497;28;20033;-82
2022/06/24 09:55:58;;;;;;;56.40;53.40;;;;;;;26.35;46.48;100538.53;5042552;28;20060;-81
2022/06/24 09:58:24;;;;;;;56.00;53.10;;;;;;;26.37;46.14;100541.75;5043609;28;20037;-79
2022/06/24 10:00:50;;;;;;;58.95;55.13;;;;;;;26.39;46.21;100544.19;5043598;28;20041;-75
2022/06/24 10:03:16;;;;;;;54.42;51.47;;;;;;;26.42;46.18;100549.00;5040340;28;20034;-79
2022/06/24 10:05:45;;;;;;;55.33;51.90;;;;;;;26.43;46.13;100556.13;5045912;28;20116;-81
2022/06/24 10:08:13;;;;;;;59.55;55.83;;;;;;;26.43;46.90;100561.69;5045317;28;20373;-81
2022/06/24 10:10:52;;;;;;;53.55;50.78;;;;;;;26.44;47.23;100555.78;5049526;28;20042;-90
2022/06/24 10:13:32;;;;;;;52.42;49.78;;;;;;;26.46;47.13;100555.44;5045302;28;20400;-91
2022/06/24 10:16:01;;;;;;;54.72;51.70;;;;;;;26.45;47.44;100548.28;5047087;28;20044;-90
2022/06/24 10:18:32;;;;;;;54.33;51.47;;;;;;;26.47;47.04;100549.53;5052344;28;20059;-86
2022/06/24 10:21:01;;;;;;;60.50;57.30;;;;;;;26.48;47.68;100547.56;5062697;28;20029;-83
2022/06/24 10:23:40;;;;;;;52.85;50.20;;;;;;;26.50;47.65;100559.09;5048672;28;20048;-88
2022/06/24 10:26:10;;;;;;;52.88;50.22;;;;;;;26.51;47.56;100571.78;5043964;28;20045;-86
2022/06/24 10:29:17;;;;;;;53.50;50.90;;;;;;;26.50;47.51;100559.91;5048390;28;20033;-90
2022/06/24 10:31:43;;;;;;;51.95;49.35;;;;;;;26.49;47.73;100565.81;5047218;28;20033;-80
2022/06/24 10:34:13;;;;;;;51.85;49.05;;;;;;;26.49;47.27;100560.28;5047914;28;20029;-74
2022/06/24 10:36:38;;;;;;;52.78;50.20;;;;;;;26.48;47.86;100556.69;5049312;28;20033;-83
2022/06/24 10:39:09;;;;;;;53.40;50.63;;;;;;;26.50;47.29;100559.09;5042262;28;20045;-82
2022/06/24 10:41:39;;;;;;;52.00;49.40;;;;;;;26.50;47.51;100557.13;5053084;28;20076;-81
2022/06/24 10:44:23;;;;;;;54.33;51.72;;;;;;;26.51;47.77;100546.84;5044460;28;20423;-86
2022/06/24 10:47:16;;;;;;;51.15;48.55;;;;;;;26.50;47.72;100542.50;5046777;28;20090;-83
2022/06/24 10:50:12;;;;;;;53.78;51.17;;;;;;;26.48;47.81;100553.09;5047746;28;20070;-83
2022/06/24 10:52:48;;;;;;;51.67;49.20;;;;;;;26.48;48.04;100542.03;5045532;28;20163;-84
2022/06/24 10:55:28;;;;;;;54.28;51.55;;;;;;;26.47;48.24;100549.53;5045047;28;20573;-85
2022/06/24 10:58:00;;;;;;;54.13;51.42;;;;;;;26.46;48.38;100553.47;5048653;28;20037;-87
2022/06/24 11:00:48;;;;;;;51.30;48.78;;;;;;;26.47;48.20;100549.53;5049380;28;20068;-84
2022/06/24 11:03:26;;;;;;;51.17;48.67;;;;;;;26.45;47.94;100557.41;5045240;28;20036;-87
2022/06/24 11:05:52;;;;;;;53.72;51.03;;;;;;;26.44;48.05;100547.50;5045845;28;20145;-83
2022/06/24 11:08:20;;;;;;;52.90;50.03;;;;;;;26.44;48.25;100546.69;5049699;28;20536;-86
2022/06/24 11:10:49;;;;;;;51.40;48.90;;;;;;;26.44;47.56;100541.94;5046508;28;20473;-83
2022/06/24 11:13:16;;;;;;;55.20;52.42;;;;;;;26.43;47.77;100532.00;5046959;28;20465;-84
2022/06/24 11:15:55;;;;;;;53.53;50.72;;;;;;;26.43;47.58;100540.31;5049406;28;20524;-84